createdAt,value
2018-11-21T00:00:03.036Z,99435.20
2018-11-21T00:02:30.401Z,99434.27
2018-11-21T00:04:57.774Z,99436.34
2018-11-21T00:07:26.101Z,99435.20
2018-11-21T00:10:12.418Z,99443.97
2018-11-21T00:12:40.403Z,99442.91
2018-11-21T00:15:08.685Z,99435.83
2018-11-21T00:17:56.245Z,99437.37
2018-11-21T00:20:23.625Z,99433.13
2018-11-21T00:22:51.186Z,99432.75
2018-11-21T00:25:37.537Z,99433.13
2018-11-21T00:28:04.940Z,99429.65
2018-11-21T00:30:51.294Z,99434.00
2018-11-21T00:33:18.785Z,99435.76
2018-11-21T00:35:46.602Z,99434.76
2018-11-21T00:38:32.844Z,99431.75
2018-11-21T00:41:00.813Z,99440.00
2018-11-21T00:43:28.189Z,99439.45
2018-11-21T00:45:55.547Z,99441.52
2018-11-21T00:48:41.896Z,99440.21
2018-11-21T00:51:09.565Z,99445.02
2018-11-21T00:53:39.075Z,99449.33
2018-11-21T00:56:06.469Z,99453.64
2018-11-21T00:58:52.748Z,99460.37
2018-11-21T01:01:20.601Z,99450.88
2018-11-21T01:03:47.942Z,99453.19
2018-11-21T01:06:34.232Z,99445.18
2018-11-21T01:09:01.600Z,99448.49
2018-11-21T01:11:29.027Z,99450.25
2018-11-21T01:13:56.392Z,99446.39
2018-11-21T01:16:42.749Z,99445.20
2018-11-21T01:19:10.101Z,99468.66
2018-11-21T01:21:37.610Z,99473.45
2018-11-21T01:24:23.951Z,99474.91
2018-11-21T01:26:51.450Z,99480.33
2018-11-21T01:29:18.956Z,99478.09
2018-11-21T01:32:05.330Z,99488.13
2018-11-21T01:34:33.263Z,99486.23
2018-11-21T01:37:00.634Z,99486.05
2018-11-21T01:39:28.035Z,99486.28
2018-11-21T01:42:14.393Z,99486.07
2018-11-21T01:44:41.852Z,99495.70
2018-11-21T01:47:09.276Z,99500.95
2018-11-21T01:49:55.551Z,99485.83
2018-11-21T01:52:22.924Z,99485.92
2018-11-21T01:54:50.423Z,99495.00
2018-11-21T01:57:36.643Z,99501.50
2018-11-21T02:00:04.475Z,99497.87
2018-11-21T02:02:31.888Z,99499.95
2018-11-21T02:04:59.348Z,99503.95
2018-11-21T02:07:27.235Z,99505.43
2018-11-21T02:09:54.557Z,99502.49
2018-11-21T02:12:22.069Z,99504.35
2018-11-21T02:14:49.403Z,99502.17
2018-11-21T02:17:35.727Z,99508.97
2018-11-21T02:20:03.168Z,99510.44
2018-11-21T02:22:30.605Z,99503.73
2018-11-21T02:25:16.976Z,99517.59
2018-11-21T02:27:44.342Z,99520.92
2018-11-21T02:30:11.804Z,99513.72
2018-11-21T02:32:39.275Z,99506.17
2018-11-21T02:35:25.528Z,99518.30
2018-11-21T02:37:53.319Z,99506.88
2018-11-21T02:40:20.692Z,99497.41
2018-11-21T02:43:07.020Z,99494.64
2018-11-21T02:45:34.471Z,99495.39
2018-11-21T02:48:01.971Z,99500.96
2018-11-21T02:50:48.577Z,99509.05
2018-11-21T02:53:16.062Z,99516.84
2018-11-21T02:55:43.467Z,99521.02
2018-11-21T02:58:29.793Z,99517.25
2018-11-21T03:00:57.122Z,99532.61
2018-11-21T03:03:24.563Z,99519.69
2018-11-21T03:05:51.981Z,99534.59
2018-11-21T03:08:38.245Z,99531.05
2018-11-21T03:11:05.687Z,99525.50
2018-11-21T03:13:33.056Z,99526.95
2018-11-21T03:16:19.455Z,99544.88
2018-11-21T03:18:47.124Z,99556.81
2018-11-21T03:21:14.614Z,99562.91
2018-11-21T03:24:00.846Z,99567.68
2018-11-21T03:26:28.311Z,99572.45
2018-11-21T03:28:55.653Z,99584.77
2018-11-21T03:31:41.981Z,99585.66
2018-11-21T03:34:09.407Z,99575.55
2018-11-21T03:39:27.151Z,99566.27
2018-11-21T03:41:54.574Z,99573.05
2018-11-21T03:44:21.929Z,99576.33
2018-11-21T03:47:08.284Z,99581.79
2018-11-21T03:49:35.656Z,99590.31
2018-11-21T03:52:03.193Z,99593.62
2018-11-21T03:57:16.939Z,99588.94
2018-11-21T03:59:44.300Z,99600.93
2018-11-21T04:02:11.658Z,99619.47
2018-11-21T04:04:58.023Z,99628.79
2018-11-21T04:07:25.346Z,99634.92
2018-11-21T04:09:53.238Z,99643.78
2018-11-21T04:12:39.569Z,99641.34
2018-11-21T04:15:06.896Z,99642.85
2018-11-21T04:17:34.240Z,99637.91
2018-11-21T04:23:12.161Z,99637.78
2018-11-21T04:28:44.721Z,99635.53
2018-11-21T04:31:12.433Z,99639.22
2018-11-21T04:33:39.907Z,99651.14
2018-11-21T04:39:02.651Z,99676.16
2018-11-21T04:41:30.015Z,99668.11
2018-11-21T04:43:57.850Z,99673.83
2018-11-21T04:46:44.168Z,99670.39
2018-11-21T04:49:11.529Z,99667.87
2018-11-21T04:55:00.132Z,99683.34
2018-11-21T04:57:27.480Z,99689.44
2018-11-21T05:00:13.801Z,99689.48
2018-11-21T05:02:41.139Z,99695.25
2018-11-21T05:05:27.463Z,99698.73
2018-11-21T05:07:54.908Z,99695.11
2018-11-21T05:10:41.170Z,99690.22
2018-11-21T05:13:08.582Z,99691.86
2018-11-21T05:15:54.854Z,99687.10
2018-11-21T05:18:22.303Z,99695.45
2018-11-21T05:20:49.825Z,99694.80
2018-11-21T05:23:38.059Z,99692.30
2018-11-21T05:26:03.582Z,99696.75
2018-11-21T05:28:30.932Z,99698.50
2018-11-21T05:31:17.247Z,99703.09
2018-11-21T05:33:44.662Z,99706.97
2018-11-21T05:36:31.006Z,99696.55
2018-11-21T05:38:58.413Z,99706.63
2018-11-21T05:41:44.748Z,99709.69
2018-11-21T05:44:31.419Z,99711.00
2018-11-21T05:47:17.355Z,99723.77
2018-11-21T05:49:44.758Z,99735.55
2018-11-21T05:52:31.064Z,99738.21
2018-11-21T05:54:58.401Z,99734.39
2018-11-21T05:57:25.807Z,99734.13
2018-11-21T06:00:12.145Z,99735.48
2018-11-21T06:02:39.944Z,99731.23
2018-11-21T06:05:07.362Z,99734.89
2018-11-21T06:07:53.619Z,99738.81
2018-11-21T06:10:21.067Z,99738.42
2018-11-21T06:12:48.403Z,99740.22
2018-11-21T06:15:36.870Z,99739.48
2018-11-21T06:18:04.238Z,99744.33
2018-11-21T06:20:31.600Z,99752.35
2018-11-21T06:23:17.914Z,99752.48
2018-11-21T06:25:45.270Z,99755.09
2018-11-21T06:28:12.678Z,99751.70
2018-11-21T06:33:31.973Z,99754.02
2018-11-21T06:36:18.296Z,99761.47
2018-11-21T06:38:45.628Z,99766.23
2018-11-21T06:41:31.946Z,99774.49
2018-11-21T06:43:59.358Z,99770.09
2018-11-21T06:46:45.683Z,99773.45
2018-11-21T06:49:13.369Z,99779.81
2018-11-21T06:51:59.678Z,99777.59
2018-11-21T06:54:46.013Z,99781.41
2018-11-21T06:57:32.276Z,99784.69
2018-11-21T07:00:00.065Z,99790.55
2018-11-21T07:02:46.340Z,99796.73
2018-11-21T07:05:13.750Z,99802.56
2018-11-21T07:08:00.385Z,99799.42
2018-11-21T07:10:27.809Z,99807.30
2018-11-21T07:13:14.068Z,99804.30
2018-11-21T07:15:41.505Z,99819.72
2018-11-21T07:20:57.833Z,99838.20
2018-11-21T07:26:11.707Z,99850.47
2018-11-21T07:28:39.121Z,99849.69
2018-11-21T07:31:06.496Z,99864.53
2018-11-21T07:33:52.836Z,99861.47
2018-11-21T07:36:20.173Z,99858.72
2018-11-21T07:38:47.512Z,99863.22
2018-11-21T07:41:33.836Z,99862.90
2018-11-21T07:44:01.241Z,99860.95
2018-11-21T07:46:28.628Z,99854.08
2018-11-21T07:49:14.946Z,99856.50
2018-11-21T07:51:42.303Z,99861.16
2018-11-21T07:54:11.314Z,99856.20
2018-11-21T07:56:57.559Z,99860.77
2018-11-21T07:59:24.976Z,99864.41
2018-11-21T08:02:11.286Z,99865.80
2018-11-21T08:04:57.559Z,99866.44
2018-11-21T08:07:43.869Z,99863.02
2018-11-21T08:10:20.413Z,99868.79
2018-11-21T08:13:06.759Z,99875.49
2018-11-21T08:15:53.090Z,99863.14
2018-11-21T08:18:39.347Z,99866.47
2018-11-21T08:21:25.676Z,99876.81
2018-11-21T08:24:17.228Z,99876.77
2018-11-21T08:27:01.260Z,99884.58
2018-11-21T08:29:47.574Z,99880.28
2018-11-21T08:32:14.975Z,99878.93
2018-11-21T08:34:42.387Z,99887.16
2018-11-21T08:37:28.704Z,99893.48
2018-11-21T08:39:56.168Z,99883.81
2018-11-21T08:42:25.653Z,99895.80
2018-11-21T08:45:11.963Z,99901.36
2018-11-21T08:47:39.328Z,99900.66
2018-11-21T08:50:06.747Z,99897.26
2018-11-21T08:52:52.998Z,99893.38
2018-11-21T08:55:20.418Z,99885.50
2018-11-21T08:57:47.823Z,99887.99
2018-11-21T09:00:34.136Z,99888.38
2018-11-21T09:03:01.544Z,99902.28
2018-11-21T09:05:28.884Z,99909.24
2018-11-21T09:08:15.203Z,99906.48
2018-11-21T09:10:42.601Z,99897.88
2018-11-21T09:13:09.941Z,99899.84
2018-11-21T09:15:56.669Z,99909.26
2018-11-21T09:18:24.188Z,99912.97
2018-11-21T09:20:51.579Z,99910.53
2018-11-21T09:23:18.988Z,99897.97
2018-11-21T09:25:46.409Z,99899.38
2018-11-21T09:28:32.659Z,99896.37
2018-11-21T09:31:07.283Z,99908.98
2018-11-21T09:33:44.066Z,99920.56
2018-11-21T09:36:11.475Z,99917.23
2018-11-21T09:38:41.099Z,99914.73
2018-11-21T09:41:27.413Z,99921.20
2018-11-21T09:43:54.867Z,99924.61
2018-11-21T09:46:22.295Z,99924.25
2018-11-21T09:49:08.920Z,99924.06
2018-11-21T09:54:23.822Z,99925.47
2018-11-21T09:56:53.464Z,99922.32
2018-11-21T09:59:21.812Z,99922.44
2018-11-21T10:04:54.393Z,99900.48
2018-11-21T10:07:40.737Z,99897.95
2018-11-21T10:10:08.110Z,99907.75
2018-11-21T10:12:54.449Z,99912.89
2018-11-21T10:15:21.863Z,99910.52
2018-11-21T10:18:08.193Z,99899.31
2018-11-21T10:20:35.535Z,99903.62
2018-11-21T10:23:21.857Z,99901.84
2018-11-21T10:25:49.293Z,99901.91
2018-11-21T10:28:35.941Z,99905.25
2018-11-21T10:31:03.388Z,99902.98
2018-11-21T10:33:49.762Z,99902.23
2018-11-21T10:36:17.121Z,99904.84
2018-11-21T10:39:03.431Z,99907.84
2018-11-21T10:41:30.849Z,99913.80
2018-11-21T10:44:17.115Z,99921.09
2018-11-21T10:46:45.544Z,99934.05
2018-11-21T10:49:31.811Z,99936.48
2018-11-21T10:51:59.231Z,99930.08
2018-11-21T10:54:47.716Z,99929.34
2018-11-21T10:57:15.151Z,99927.06
2018-11-21T10:59:47.996Z,99937.66
2018-11-21T11:02:29.594Z,99945.11
2018-11-21T11:05:15.857Z,99949.94
2018-11-21T11:08:09.538Z,99951.02
2018-11-21T11:13:58.407Z,99951.23
2018-11-21T11:16:50.553Z,99947.92
2018-11-21T11:19:39.798Z,99949.72
2018-11-21T11:22:26.060Z,99937.25
2018-11-21T11:25:12.396Z,99929.58
2018-11-21T11:27:57.910Z,99932.63
2018-11-21T11:30:50.237Z,99940.19
2018-11-21T11:33:36.594Z,99939.55
2018-11-21T11:36:21.602Z,99937.12
2018-11-21T11:39:06.957Z,99947.61
2018-11-21T11:41:51.985Z,99940.00
2018-11-21T11:44:37.300Z,99939.27
2018-11-21T11:47:15.679Z,99942.04
2018-11-21T11:50:08.319Z,99939.48
2018-11-21T11:52:52.968Z,99940.81
2018-11-21T11:55:39.340Z,99938.47
2018-11-21T11:58:15.376Z,99939.53
2018-11-21T12:01:07.635Z,99937.92
2018-11-21T12:03:49.786Z,99942.25
2018-11-21T12:06:39.311Z,99947.37
2018-11-21T12:09:32.740Z,99952.59
2018-11-21T12:12:40.025Z,99944.14
2018-11-21T12:15:20.976Z,99950.79
2018-11-21T12:21:11.010Z,99960.68
2018-11-21T12:23:56.523Z,99960.95
2018-11-21T12:26:39.517Z,99966.02
2018-11-21T12:32:05.833Z,99958.62
2018-11-21T12:34:50.923Z,99954.26
2018-11-21T12:37:37.264Z,99953.81
2018-11-21T12:40:23.583Z,99950.41
2018-11-21T12:43:13.220Z,99950.84
2018-11-21T12:45:56.183Z,99953.16
2018-11-21T12:48:42.533Z,99952.66
2018-11-21T12:51:28.813Z,99959.42
2018-11-21T12:54:15.157Z,99963.73
2018-11-21T12:57:01.436Z,99964.09
2018-11-21T12:59:51.410Z,99962.04
2018-11-21T13:02:36.408Z,99958.95
2018-11-21T13:05:22.724Z,99966.86
2018-11-21T13:08:09.009Z,99958.92
2018-11-21T13:10:55.358Z,99949.69
2018-11-21T13:13:41.680Z,99952.03
2018-11-21T13:16:28.058Z,99950.38
2018-11-21T13:19:14.368Z,99950.80
2018-11-21T13:21:56.401Z,99945.91
2018-11-21T13:24:42.659Z,99950.47
2018-11-21T13:27:28.980Z,99952.44
2018-11-21T13:30:15.320Z,99968.12
2018-11-21T13:33:01.647Z,99968.98
2018-11-21T13:35:47.845Z,99963.53
2018-11-21T13:38:34.306Z,99975.65
2018-11-21T13:41:20.633Z,99981.54
2018-11-21T13:44:06.958Z,99971.52
2018-11-21T13:46:53.215Z,99975.31
2018-11-21T13:49:39.539Z,99983.34
2018-11-21T13:52:25.800Z,99982.08
2018-11-21T13:55:12.145Z,99980.97
2018-11-21T13:57:58.403Z,99985.18
2018-11-21T14:00:25.754Z,99983.13
2018-11-21T14:03:12.147Z,99988.79
2018-11-21T14:05:39.497Z,99989.56
2018-11-21T14:08:25.833Z,99994.58
2018-11-21T14:11:12.159Z,99992.89
2018-11-21T14:14:01.430Z,99990.62
2018-11-21T14:16:25.856Z,99986.86
2018-11-21T14:19:13.430Z,99996.77
2018-11-21T14:21:39.614Z,99993.58
2018-11-21T14:26:59.769Z,99999.78
2018-11-21T14:32:32.331Z,99986.38
2018-11-21T14:35:01.476Z,99995.02
2018-11-21T14:37:46.023Z,100005.37
2018-11-21T14:40:14.570Z,100001.45
2018-11-21T14:43:00.824Z,100000.67
2018-11-21T14:45:28.308Z,100003.20
2018-11-21T14:48:14.570Z,100015.12
2018-11-21T14:50:42.109Z,100019.41
2018-11-21T14:53:09.456Z,100017.60
2018-11-21T14:55:58.219Z,100008.33
2018-11-21T14:58:25.969Z,100020.15
2018-11-21T15:00:53.339Z,100029.79
2018-11-21T15:03:39.685Z,100030.53
2018-11-21T15:06:07.033Z,100031.69
2018-11-21T15:08:34.454Z,100029.86
2018-11-21T15:11:01.870Z,100040.36
2018-11-21T15:13:29.283Z,100037.66
2018-11-21T15:16:15.619Z,100034.82
2018-11-21T15:18:47.826Z,100033.37
2018-11-21T15:24:20.382Z,100036.47
2018-11-21T15:26:47.728Z,100032.86
2018-11-21T15:29:18.575Z,100051.63
2018-11-21T15:31:45.925Z,100046.28
2018-11-21T15:34:13.748Z,100051.80
2018-11-21T15:36:41.472Z,100048.47
2018-11-21T15:39:09.327Z,100044.75
2018-11-21T15:44:15.284Z,100049.39
2018-11-21T15:46:45.828Z,100049.15
2018-11-21T15:49:11.724Z,100055.91
2018-11-21T15:51:40.292Z,100053.95
2018-11-21T15:54:08.109Z,100057.76
2018-11-21T15:56:35.559Z,100063.19
2018-11-21T15:59:03.332Z,100071.70
2018-11-21T16:01:30.812Z,100077.20
2018-11-21T16:04:01.228Z,100076.02
2018-11-21T16:06:29.075Z,100079.75
2018-11-21T16:08:56.435Z,100089.96
2018-11-21T16:11:23.802Z,100087.94
2018-11-21T16:13:53.972Z,100087.62
2018-11-21T16:16:23.330Z,100090.86
2018-11-21T16:18:48.769Z,100093.11
2018-11-21T16:21:16.621Z,100097.22
2018-11-21T16:23:44.218Z,100100.36
2018-11-21T16:26:13.768Z,100102.70
2018-11-21T16:28:41.460Z,100105.47
2018-11-21T16:31:08.998Z,100103.50
2018-11-21T16:33:36.429Z,100111.55
2018-11-21T16:36:04.205Z,100113.09
2018-11-21T16:38:31.706Z,100108.27
2018-11-21T16:40:59.058Z,100116.00
2018-11-21T16:43:26.492Z,100116.66
2018-11-21T16:45:55.686Z,100117.33
2018-11-21T16:48:23.390Z,100121.97
2018-11-21T16:50:52.808Z,100122.56
2018-11-21T16:53:20.227Z,100125.37
2018-11-21T16:55:49.320Z,100134.34
2018-11-21T16:58:15.453Z,100143.16
2018-11-21T17:00:42.893Z,100139.27
2018-11-21T17:03:17.185Z,100138.50
2018-11-21T17:05:44.601Z,100144.14
2018-11-21T17:08:12.025Z,100139.81
2018-11-21T17:10:39.912Z,100141.13
2018-11-21T17:13:07.251Z,100142.44
2018-11-21T17:15:35.347Z,100146.44
2018-11-21T17:18:03.153Z,100148.35
2018-11-21T17:20:31.994Z,100144.41
2018-11-21T17:23:00.254Z,100142.98
2018-11-21T17:25:46.570Z,100150.17
2018-11-21T17:28:16.836Z,100149.19
2018-11-21T17:30:44.271Z,100152.92
2018-11-21T17:33:12.206Z,100154.51
2018-11-21T17:35:39.632Z,100153.81
2018-11-21T17:38:06.971Z,100162.75
2018-11-21T17:40:36.665Z,100157.75
2018-11-21T17:43:04.034Z,100157.98
2018-11-21T17:45:31.474Z,100155.68
2018-11-21T17:47:59.231Z,100156.45
2018-11-21T17:50:26.600Z,100154.92
2018-11-21T17:52:55.836Z,100156.89
2018-11-21T17:55:25.158Z,100155.42
2018-11-21T17:58:11.437Z,100152.66
2018-11-21T18:00:39.504Z,100159.63
2018-11-21T18:03:08.277Z,100165.28
2018-11-21T18:05:44.824Z,100159.95
2018-11-21T18:08:12.590Z,100162.52
2018-11-21T18:10:41.262Z,100157.97
2018-11-21T18:13:08.665Z,100160.28
2018-11-21T18:15:36.482Z,100164.43
2018-11-21T18:18:03.905Z,100163.34
2018-11-21T18:20:31.356Z,100163.18
2018-11-21T18:22:59.033Z,100164.44
2018-11-21T18:25:46.024Z,100178.30
2018-11-21T18:28:13.802Z,100168.55
2018-11-21T18:30:41.641Z,100175.93
2018-11-21T18:33:09.043Z,100176.31
2018-11-21T18:35:36.460Z,100178.02
2018-11-21T18:38:04.279Z,100176.70
2018-11-21T18:40:32.203Z,100180.59
2018-11-21T18:42:59.620Z,100182.35
2018-11-21T18:45:30.441Z,100188.39
2018-11-21T18:53:05.763Z,100194.30
2018-11-21T18:55:33.182Z,100190.73
2018-11-21T18:58:00.552Z,100187.17
2018-11-21T19:00:28.380Z,100189.35
2018-11-21T19:02:55.722Z,100196.77
2018-11-21T19:05:23.661Z,100191.50
2018-11-21T19:07:51.298Z,100198.50
2018-11-21T19:10:20.975Z,100191.50
2018-11-21T19:12:48.391Z,100192.44
2018-11-21T19:15:17.016Z,100188.09
2018-11-21T19:17:44.441Z,100182.39
2018-11-21T19:20:12.796Z,100189.80
2018-11-21T19:23:03.266Z,100190.52
2018-11-21T19:28:41.501Z,100193.47
